Jordan, MT (59337)

9:21 PM MDT on July 22, 2014 (GMT -0600)
RAWS KING COULEE MT US (MKIGM8) Elev 2759 ft | 47.80 °N, 107.02 °W | Change Station

Current weather conditions updated 37 minutes ago

Clear
Clear
77 °F
Feels Like 78 °F
N
8
Wind Variable Wind from East
Gusts 15.0 mph

Tomorrow is forecast to be Much Warmer than today.

Today
High -- | Low -- °F
--% Chance of Precip.
Yesterday
High -- | Low -- °F
Precip. -- in
5:32 AM 8:53 PM
Waning Crescent, 13% visible
Pressure 30.16 in
Visibility 10.0 miles
Clouds Clear
Heat Index 78 °F
Dew Point 51 °F
Humidity 40%
Rainfall 0.00 in
Snow Depth Not available.
UV 0 out of 12
Pollen 6.10 out of 12
Air Quality Not available.
Flu Activity Not available.
METAR KGGW 230253Z AUTO 08008KT 10SM CLR 24/11 A3019 RMK AO2 PRESRR SLP211 T02390106 53004

More Conditions Fewer Conditions

Pressure 30.16 in
Visibility 10.0 miles
Clouds Clear
Heat Index 78 °F
Dew Point 51 °F
Humidity 40%
Rainfall 0.00 in
Snow Depth Not available.
UV 0 out of 12
Pollen 6.10 out of 12
Air Quality Not available.
Flu Activity Not available.
METAR KGGW 230253Z AUTO 08008KT 10SM CLR 24/11 A3019 RMK AO2 PRESRR SLP211 T02390106 53004

More Conditions Fewer Conditions

10-Day Weather Forecast

Almanac

Astronomy

Jul. 22, 2014 Rise Set
Actual Time 5:32 AM MDT 8:53 PM MDT
Civil Twilight 4:55 AM MDT 9:31 PM MDT
Nautical Twilight 4:05 AM MDT 10:20 PM MDT
Astronomical Twilight 3:01 AM MDT 11:23 PM MDT
Moon 2:11 AM MDT (7/22) 5:32 PM MDT (7/22)
Length of Visible Light 16h 36m
Length of Day
15h 20m
Tomorrow will be 2m 16s shorter.
Waning Crescent, 13% of the Moon is Illuminated
Today
Waning Crescent
Jul 26
New
Aug 3
First Quarter
Aug 10
Full
Aug 17
Last Quarter

Today's Extremes

State Highs State Lows

Community

WunderPhotos

Upload Photos

1,736,481 photos uploaded!

Nearby

Snow Depth

Station Depth Elevation
Crystal Lake 0 in 6050 ft
Onion Park 0 in 7410 ft
Porcupine 1 in 6500 ft
Cole Creek 0 in 7850 ft
White Mill 1 in 8700 ft

Earthquake Activity

City Distance Mag. Time & Date
No recent earthquake activity has been reported nearby.
Minimum magnitude displayed is 2.5.

Coastal Water Temperatures

Place Temperature
No Stations Reporting

Nearby Weather Stations

Station Location Temp. Heat Index Dew Point Humidity Wind Precip. Elev Updated Type
MesoWest Jordan , Jordan, MT 77 °F 78 °F 51 °F 39% NE  at  7 mph 0.00 in / hr 2819 ft 8:00 PM MDT MADIS
RAWS KING COULEE MT, Jordan, MT 77 °F 78 °F 51 °F 40% East  at  8 mph 0.00 in / hr 2759 ft 8:44 PM MDT MADIS
MesoWest PINES REC SITE , Fort Peck, MT 77 °F 78 °F 53 °F 43% ENE  at  5 mph 0.00 in / hr 2384 ft 7:55 PM MDT MADIS
APRSWXNET Jordan MT , Jordan, MT 74 °F 77 °F 57 °F 55% SSE  at  6 mph 0.00 in / hr 0 ft 8:43 PM MDT MADIS

Show More Stations Show Fewer Stations